createdAt,value
2019-03-25T00:00:00.860Z,4.00
2019-03-25T00:02:30.814Z,4.03
2019-03-25T00:04:59.339Z,4.20
2019-03-25T00:07:27.866Z,3.47
2019-03-25T00:09:56.347Z,3.77
2019-03-25T00:12:24.812Z,3.60
2019-03-25T00:14:53.362Z,3.50
2019-03-25T00:17:21.899Z,4.10
2019-03-25T00:19:50.358Z,4.23
2019-03-25T00:22:18.836Z,3.43
2019-03-25T00:24:47.309Z,4.00
2019-03-25T00:27:15.810Z,4.13
2019-03-25T00:29:44.360Z,3.57
2019-03-25T00:32:12.897Z,4.03
2019-03-25T00:34:41.446Z,3.40
2019-03-25T00:37:09.954Z,3.00
2019-03-25T00:39:38.430Z,3.53
2019-03-25T00:42:07.006Z,3.17
2019-03-25T00:44:35.502Z,2.73
2019-03-25T00:47:04.114Z,4.07
2019-03-25T00:49:32.589Z,3.10
2019-03-25T00:52:01.046Z,3.50
2019-03-25T00:54:29.580Z,2.90
2019-03-25T00:56:58.063Z,3.60
2019-03-25T00:59:26.516Z,3.33
2019-03-25T01:01:55.036Z,3.60
2019-03-25T01:04:23.551Z,3.57
2019-03-25T01:06:52.198Z,2.70
2019-03-25T01:09:20.664Z,3.27
2019-03-25T01:11:49.559Z,4.60
2019-03-25T01:14:18.214Z,3.50
2019-03-25T01:16:46.669Z,3.70
2019-03-25T01:19:15.173Z,4.37
2019-03-25T01:21:43.634Z,4.47
2019-03-25T01:24:12.188Z,3.97
2019-03-25T01:26:40.654Z,4.20
2019-03-25T01:29:09.122Z,3.90
2019-03-25T01:31:37.665Z,3.57
2019-03-25T01:34:06.134Z,4.07
2019-03-25T01:36:34.600Z,3.63
2019-03-25T01:39:04.902Z,3.90
2019-03-25T01:41:33.434Z,4.17
2019-03-25T01:44:01.906Z,3.80
2019-03-25T01:46:33.460Z,3.17
2019-03-25T01:49:01.950Z,3.63
2019-03-25T01:51:30.454Z,3.63
2019-03-25T01:54:00.465Z,3.70
2019-03-25T01:56:28.920Z,3.93
2019-03-25T01:58:57.402Z,4.00
2019-03-25T02:01:25.852Z,4.23
2019-03-25T02:03:54.494Z,4.07
2019-03-25T02:06:23.827Z,4.40
2019-03-25T02:08:52.354Z,3.60
2019-03-25T02:11:22.310Z,4.17
2019-03-25T02:13:50.999Z,4.17
2019-03-25T02:16:19.500Z,4.30
2019-03-25T02:18:48.033Z,4.37
2019-03-25T02:21:16.502Z,3.70
2019-03-25T02:23:44.949Z,5.23
2019-03-25T02:26:13.449Z,4.13
2019-03-25T02:28:41.916Z,4.10
2019-03-25T02:31:10.390Z,4.63
2019-03-25T02:33:38.845Z,3.80
2019-03-25T02:36:07.320Z,4.47
2019-03-25T02:38:35.789Z,5.13
2019-03-25T02:41:04.399Z,3.73
2019-03-25T02:43:32.928Z,4.47
2019-03-25T02:46:01.447Z,4.20
2019-03-25T02:48:29.969Z,4.53
2019-03-25T02:50:58.446Z,4.70
2019-03-25T02:53:26.901Z,4.27
2019-03-25T02:55:55.432Z,4.70
2019-03-25T02:58:23.956Z,4.60
2019-03-25T03:00:52.490Z,5.20
2019-03-25T03:03:20.944Z,4.27
2019-03-25T03:05:49.415Z,3.60
2019-03-25T03:08:17.917Z,4.67
2019-03-25T03:10:46.463Z,5.53
2019-03-25T03:13:14.927Z,4.80
2019-03-25T03:15:46.716Z,5.60
2019-03-25T03:18:15.266Z,4.57
2019-03-25T03:20:43.909Z,5.63
2019-03-25T03:23:12.414Z,5.90
2019-03-25T03:25:55.657Z,5.73
2019-03-25T03:28:11.266Z,5.93
2019-03-25T03:30:39.772Z,4.93
2019-03-25T03:33:08.256Z,5.53
2019-03-25T03:35:36.808Z,6.47
2019-03-25T03:38:05.334Z,6.50
2019-03-25T03:40:33.992Z,5.70
2019-03-25T03:43:02.515Z,5.50
2019-03-25T03:45:30.971Z,5.70
2019-03-25T03:47:59.476Z,5.90
2019-03-25T03:50:28.470Z,5.80
2019-03-25T03:52:57.539Z,6.20
2019-03-25T03:55:26.068Z,6.57
2019-03-25T03:57:56.872Z,6.33
2019-03-25T04:00:30.274Z,8.63
2019-03-25T04:02:59.293Z,5.57
2019-03-25T04:05:27.753Z,6.60
2019-03-25T04:07:56.290Z,7.03
2019-03-25T04:10:24.755Z,6.27
2019-03-25T04:12:53.235Z,7.00
2019-03-25T04:15:32.541Z,6.70
2019-03-25T04:18:01.205Z,7.90
2019-03-25T04:20:30.719Z,7.80
2019-03-25T04:22:59.271Z,7.33
2019-03-25T04:25:27.727Z,6.73
2019-03-25T04:27:56.369Z,6.37
2019-03-25T04:30:26.762Z,6.43
2019-03-25T04:32:55.370Z,6.07
2019-03-25T04:35:23.911Z,6.10
2019-03-25T04:37:52.598Z,5.47
2019-03-25T04:40:21.232Z,4.97
2019-03-25T04:42:49.837Z,4.90
2019-03-25T04:45:18.428Z,4.93
2019-03-25T04:47:46.916Z,4.30
2019-03-25T04:50:15.426Z,4.93
2019-03-25T04:52:43.941Z,4.50
2019-03-25T04:55:12.455Z,3.70
2019-03-25T04:57:40.948Z,4.40
2019-03-25T05:00:09.840Z,3.90
2019-03-25T05:02:38.296Z,4.73
2019-03-25T05:05:09.212Z,4.23
2019-03-25T05:07:37.664Z,4.20
2019-03-25T05:10:07.500Z,4.37
2019-03-25T05:12:36.066Z,3.87
2019-03-25T05:15:06.002Z,4.33
2019-03-25T05:17:34.464Z,3.80
2019-03-25T05:20:02.984Z,3.50
2019-03-25T11:21:32.600Z,2.83
2019-03-25T11:24:01.087Z,2.30
2019-03-25T11:26:29.609Z,2.43
2019-03-25T11:29:14.296Z,2.60
2019-03-25T11:31:42.807Z,2.33
2019-03-25T11:34:13.006Z,2.20
2019-03-25T11:36:41.836Z,2.50
2019-03-25T11:39:10.821Z,2.20
2019-03-25T11:41:39.705Z,2.03
2019-03-25T11:44:08.265Z,2.23
2019-03-25T11:46:36.828Z,2.10
2019-03-25T11:49:05.361Z,1.90
2019-03-25T11:51:33.836Z,2.80
2019-03-25T11:54:02.296Z,2.30
2019-03-25T11:56:38.650Z,2.10
2019-03-25T12:02:17.719Z,1.80
2019-03-25T12:05:10.430Z,1.80
2019-03-25T12:07:38.912Z,1.63
2019-03-25T12:10:13.351Z,1.87
2019-03-25T12:12:54.502Z,1.97
2019-03-25T12:15:40.626Z,1.67
2019-03-25T12:18:34.993Z,1.60
2019-03-25T12:21:20.954Z,1.70
2019-03-25T12:23:50.253Z,1.70
2019-03-25T12:26:18.939Z,1.73
2019-03-25T12:28:51.407Z,1.90
2019-03-25T12:31:22.493Z,2.10
2019-03-25T12:33:51.137Z,1.50
2019-03-25T12:36:23.215Z,1.70
2019-03-25T12:38:53.461Z,1.50
2019-03-25T12:41:38.842Z,1.60
2019-03-25T12:47:20.533Z,2.20
2019-03-25T12:55:21.799Z,2.70
2019-03-25T12:57:50.295Z,1.97
2019-03-25T13:00:33.907Z,2.30
2019-03-25T13:03:02.401Z,1.97
2019-03-25T13:05:31.008Z,1.93
2019-03-25T13:07:59.537Z,1.70
2019-03-25T13:10:28.095Z,2.50
2019-03-25T13:12:56.946Z,2.20
2019-03-25T13:15:25.407Z,2.00
2019-03-25T13:17:53.883Z,2.00
2019-03-25T13:20:22.925Z,1.90
2019-03-25T13:22:51.601Z,2.10
2019-03-25T13:25:20.075Z,2.73
2019-03-25T13:27:48.591Z,2.30
2019-03-25T13:30:37.093Z,2.30
2019-03-25T13:33:07.674Z,2.27
2019-03-25T13:35:37.661Z,1.60
2019-03-25T13:41:33.093Z,2.10
2019-03-25T13:44:03.217Z,2.20
2019-03-25T13:46:41.106Z,2.00
2019-03-25T13:49:09.698Z,2.87
2019-03-25T13:51:38.698Z,2.23
2019-03-25T13:54:09.027Z,2.37
2019-03-25T13:56:45.198Z,3.00
2019-03-25T13:59:19.725Z,2.60
2019-03-25T14:02:21.634Z,2.27
2019-03-25T14:07:53.602Z,2.30
2019-03-25T14:10:22.168Z,3.57
2019-03-25T14:12:51.957Z,2.53
2019-03-25T14:15:22.226Z,2.83
2019-03-25T14:18:00.621Z,1.70
2019-03-25T14:20:29.089Z,2.70
2019-03-25T14:22:57.808Z,3.27
2019-03-25T14:25:26.282Z,3.10
2019-03-25T14:27:54.802Z,2.20
2019-03-25T14:30:23.328Z,2.60
2019-03-25T14:32:51.975Z,3.70
2019-03-25T14:35:20.418Z,1.70
2019-03-25T14:37:48.900Z,1.60
2019-03-25T14:40:17.398Z,1.50
2019-03-25T14:42:45.932Z,1.43
2019-03-25T14:45:14.658Z,1.80
2019-03-25T14:47:43.141Z,1.70
2019-03-25T14:50:13.542Z,1.60
2019-03-25T14:52:42.028Z,1.50
2019-03-25T14:55:10.636Z,1.63
2019-03-25T14:57:39.161Z,2.10
2019-03-25T15:00:08.695Z,1.90
2019-03-25T15:02:37.208Z,1.63
2019-03-25T15:05:26.382Z,2.07
2019-03-25T15:07:54.902Z,1.80
2019-03-25T15:10:26.778Z,1.93
2019-03-25T15:13:04.528Z,1.90
2019-03-25T15:16:03.372Z,2.20
2019-03-25T15:18:32.060Z,2.33
2019-03-25T15:21:00.587Z,2.77
2019-03-25T15:23:36.329Z,2.23
2019-03-25T15:26:04.980Z,2.10
2019-03-25T15:28:33.894Z,1.90
2019-03-25T15:31:02.761Z,2.30
2019-03-25T15:33:31.312Z,2.23
2019-03-25T15:35:59.770Z,2.20
2019-03-25T15:38:28.237Z,2.10
2019-03-25T15:40:56.698Z,2.10
2019-03-25T15:43:25.184Z,1.77
2019-03-25T15:45:53.715Z,1.30
2019-03-25T15:48:22.249Z,1.90
2019-03-25T15:50:50.715Z,1.83
2019-03-25T15:53:19.171Z,2.17
2019-03-25T15:55:47.634Z,1.77
2019-03-25T15:58:25.622Z,1.97
2019-03-25T16:00:48.125Z,1.93
2019-03-25T16:03:16.516Z,1.90
2019-03-25T16:05:44.974Z,1.60
2019-03-25T16:08:13.597Z,2.60
2019-03-25T16:10:42.096Z,1.90
2019-03-25T16:13:10.816Z,2.63
2019-03-25T16:15:41.418Z,2.20
2019-03-25T16:18:10.756Z,2.30
2019-03-25T16:20:39.315Z,2.30
2019-03-25T16:23:08.021Z,2.23
2019-03-25T16:25:36.484Z,2.10
2019-03-25T16:28:05.032Z,2.60
2019-03-25T16:30:33.490Z,2.83
2019-03-25T16:33:01.948Z,2.50
2019-03-25T16:35:30.495Z,2.20
2019-03-25T16:37:59.089Z,2.30
2019-03-25T16:40:36.825Z,2.40
2019-03-25T16:43:10.591Z,2.53
2019-03-25T16:45:39.284Z,2.40
2019-03-25T16:48:07.888Z,1.90
2019-03-25T16:50:40.751Z,2.10
2019-03-25T16:53:07.285Z,2.37
2019-03-25T16:55:35.951Z,2.40
2019-03-25T16:58:04.450Z,2.73
2019-03-25T17:00:32.921Z,1.97
2019-03-25T17:03:01.410Z,2.07
2019-03-25T17:05:29.984Z,2.57
2019-03-25T17:07:58.515Z,2.10
2019-03-25T17:10:26.975Z,2.23
2019-03-25T17:12:55.471Z,2.47
2019-03-25T17:15:23.950Z,2.07
2019-03-25T17:17:52.444Z,2.50
2019-03-25T17:20:27.014Z,2.10
2019-03-25T23:26:50.520Z,9.53
2019-03-25T23:29:18.988Z,9.97
2019-03-25T23:31:47.473Z,9.40
2019-03-25T23:34:15.928Z,8.43
2019-03-25T23:36:44.384Z,9.10
2019-03-25T23:39:12.852Z,9.53
2019-03-25T23:41:41.330Z,7.70
2019-03-25T23:44:09.932Z,9.30
2019-03-25T23:46:38.390Z,8.90
2019-03-25T23:49:06.883Z,8.73
2019-03-25T23:51:35.353Z,9.00
2019-03-25T23:54:12.906Z,9.90
2019-03-25T23:56:42.057Z,7.47
2019-03-25T23:59:10.543Z,8.47
